Atlas — SV6729 — position and weather

sailwx.info

Track history (hours):
 
Tides and Currents Weather Stations Pressure Air Temp Water Temp Dewpoint Dewpoint Depression Visibility Wind Speed Wind Dir Waves Ship Positions

Atlas

Last reported at 2015-Apr-01 18:31 UTC. Time now 2015-Apr-02 09:40 UTC.
Position N 37°57' E 023°37'.

Length 29 m; draft 5 m.

Type: Tug. MMSI: 239611000.

Date/timePositionNaut miles runAvg speedWind from/ knotsBaromVisibWave heightAir tempDewpointWater temp
2015-Apr-01 18:31N 37°57' E 023°37'0 0.0
2015-Apr-01 17:30N 37°57' E 023°37'0 0.4
2015-Apr-01 16:29N 37°58' E 023°36'0 0.4
2015-Apr-01 15:33N 37°57' E 023°37'0 0.0
2015-Apr-01 14:30N 37°57' E 023°37'0 0.0
2015-Apr-01 13:31N 37°57' E 023°37'0 0.0
2015-Apr-01 12:32N 37°57' E 023°37'0 0.0
2015-Apr-01 11:32N 37°57' E 023°37'0 0.0
2015-Mar-31 18:27N 37°57' E 023°37'0 0.5
2015-Mar-31 17:33N 37°57' E 023°36'0 0.4
2015-Mar-31 16:32N 37°57' E 023°37'2 1.8
2015-Mar-31 15:33N 37°57' E 023°34'0 0.4
2015-Mar-31 14:33N 37°57' E 023°34'2 1.4
2015-Mar-31 13:26N 37°57' E 023°36'4 4.1
2015-Mar-31 12:32N 37°60' E 023°33'3 2.8
2015-Mar-31 11:34N 37°57' E 023°34'2 0.2
2015-Mar-31 00:15N 37°57' E 023°37'0 0.0
2015-Mar-30 23:30N 37°57' E 023°37'0 0.0
2015-Mar-30 22:28N 37°57' E 023°37'0 0.0
2015-Mar-30 21:31N 37°57' E 023°37'1 0.5
2015-Mar-30 20:33N 37°57' E 023°37'1 0.5
2015-Mar-30 19:31N 37°57' E 023°37'0 0.0
2015-Mar-30 18:33N 37°57' E 023°37'0 0.0
2015-Mar-30 17:29N 37°57' E 023°37'0 0.0
2015-Mar-30 16:32N 37°57' E 023°37'4 3.8
2015-Mar-30 15:33N 37°60' E 023°33'2 1.6
2015-Mar-30 14:33N 38°01' E 023°35'4 3.7
2015-Mar-30 13:33N 37°57' E 023°36'0 0.2
2015-Mar-30 12:33N 37°57' E 023°37'0 0.0
2015-Mar-30 11:30N 37°57' E 023°37'1 0.1
2015-Mar-29 22:33N 37°57' E 023°35'6 5.9
2015-Mar-29 21:33N 38°02' E 023°31'4 4.1
2015-Mar-29 20:33N 37°58' E 023°33'3 3.0
2015-Mar-29 19:33N 37°57' E 023°37'0 0.0
2015-Mar-29 18:33N 37°57' E 023°37'1 0.9
2015-Mar-29 17:28N 37°57' E 023°35'1 1.0
2015-Mar-29 16:29N 37°57' E 023°37'0 0.0
2015-Mar-29 15:32N 37°57' E 023°37'1 0.8
2015-Mar-29 14:33N 37°57' E 023°36'0 0.4
2015-Mar-29 13:33N 37°57' E 023°36'1 0.5
2015-Mar-29 12:28N 37°57' E 023°37'1 1.0
2015-Mar-29 11:32N 37°57' E 023°35'1 0.0
2015-Mar-28 12:33N 37°57' E 023°37'1 1.0
2015-Mar-28 11:34N 37°57' E 023°35'1 1.0
2015-Mar-28 10:32N 37°57' E 023°37'0 0.0
2015-Mar-28 09:30N 37°57' E 023°37'0 0.0
2015-Mar-28 08:33N 37°57' E 023°37'3 2.8
2015-Mar-28 07:22N 37°60' E 023°34'2 1.9
2015-Mar-28 06:31N 37°59' E 023°32'3 3.2
2015-Mar-28 05:31N 37°57' E 023°36'0 0.5
2015-Mar-28 04:31N 37°57' E 023°35'1 0.0
2015-Mar-27 11:33N 37°57' E 023°34'4 4.0
2015-Mar-27 10:28N 38°02' E 023°36'2 2.1
2015-Mar-27 09:33N 38°02' E 023°33'2 1.8
2015-Mar-27 08:33N 38°02' E 023°31'1 0.7
2015-Mar-27 07:33N 38°02' E 023°30'4 2.0
2015-Mar-27 05:25N 37°58' E 023°33'3 2.9
2015-Mar-27 04:22N 37°57' E 023°37'1 0.0
2015-Mar-26 14:33N 37°57' E 023°36'2 1.6
2015-Mar-26 13:18N 37°58' E 023°33'4 4.5
2015-Mar-26 12:27N 38°01' E 023°35'0 0.2
2015-Mar-26 11:31N 38°01' E 023°35'4 4.3
2015-Mar-26 10:33N 37°58' E 023°33'3 2.3
2015-Mar-26 09:23N 37°57' E 023°37'0 0.0
2015-Mar-26 07:32N 37°57' E 023°37'0 0.0
2015-Mar-26 05:22N 37°57' E 023°37'1 1.1
2015-Mar-26 04:25N 37°57' E 023°35'1 0.1
2015-Mar-25 07:33N 37°56' E 023°36'1 0.9
2015-Mar-25 06:27N 37°57' E 023°36'1 0.8
2015-Mar-25 05:32N 37°57' E 023°35'1 1.0
2015-Mar-25 04:32N 37°57' E 023°36'0 0.0
2015-Mar-24 11:28N 37°57' E 023°37'0 0.0
2015-Mar-24 09:10N 37°57' E 023°37'1 0.4
2015-Mar-24 05:20N 37°57' E 023°35'1 1.1
2015-Mar-24 04:03N 37°57' E 023°37'0 0.0
2015-Mar-23 19:07N 37°57' E 023°36'0 0.2
2015-Mar-23 18:18N 37°57' E 023°36'0 0.0
2015-Mar-23 17:28N 37°57' E 023°36'0 0.0
2015-Mar-23 16:22N 37°57' E 023°36'0 0.0
2015-Mar-23 15:18N 37°57' E 023°36'0 0.3
2015-Mar-23 14:28N 37°57' E 023°36'1 1.2
2015-Mar-23 13:33N 37°56' E 023°36'1 1.0
2015-Mar-23 12:31N 37°57' E 023°36'0 0.2
2015-Mar-23 11:08N 37°57' E 023°37'0 0.0
2015-Mar-23 10:21N 37°57' E 023°37'3 3.2
2015-Mar-23 09:33N 37°57' E 023°33'  
Track history (hours):
 
Tides and Currents Weather Stations Pressure Air Temp Water Temp Dewpoint Dewpoint Depression Visibility Wind Speed Wind Dir Waves Ship Positions

Atlas

Last reported at 2015-Apr-01 18:31 UTC. Time now 2015-Apr-02 09:40 UTC.
Position N 37°57' E 023°37'.

Length 29 m; draft 5 m.

Type: Tug. MMSI: 239611000.

Date/timePositionNaut miles runAvg speedWind from/ knotsBaromVisibWave heightAir tempDewpointWater temp
2015-Apr-01 18:31N 37°57' E 023°37'0 0.0
2015-Apr-01 17:30N 37°57' E 023°37'0 0.4
2015-Apr-01 16:29N 37°58' E 023°36'0 0.4
2015-Apr-01 15:33N 37°57' E 023°37'0 0.0
2015-Apr-01 14:30N 37°57' E 023°37'0 0.0
2015-Apr-01 13:31N 37°57' E 023°37'0 0.0
2015-Apr-01 12:32N 37°57' E 023°37'0 0.0
2015-Apr-01 11:32N 37°57' E 023°37'0 0.0
2015-Mar-31 18:27N 37°57' E 023°37'0 0.5
2015-Mar-31 17:33N 37°57' E 023°36'0 0.4
2015-Mar-31 16:32N 37°57' E 023°37'2 1.8
2015-Mar-31 15:33N 37°57' E 023°34'0 0.4
2015-Mar-31 14:33N 37°57' E 023°34'2 1.4
2015-Mar-31 13:26N 37°57' E 023°36'4 4.1
2015-Mar-31 12:32N 37°60' E 023°33'3 2.8
2015-Mar-31 11:34N 37°57' E 023°34'2 0.2
2015-Mar-31 00:15N 37°57' E 023°37'0 0.0
2015-Mar-30 23:30N 37°57' E 023°37'0 0.0
2015-Mar-30 22:28N 37°57' E 023°37'0 0.0
2015-Mar-30 21:31N 37°57' E 023°37'1 0.5
2015-Mar-30 20:33N 37°57' E 023°37'1 0.5
2015-Mar-30 19:31N 37°57' E 023°37'0 0.0
2015-Mar-30 18:33N 37°57' E 023°37'0 0.0
2015-Mar-30 17:29N 37°57' E 023°37'0 0.0
2015-Mar-30 16:32N 37°57' E 023°37'4 3.8
2015-Mar-30 15:33N 37°60' E 023°33'2 1.6
2015-Mar-30 14:33N 38°01' E 023°35'4 3.7
2015-Mar-30 13:33N 37°57' E 023°36'0 0.2
2015-Mar-30 12:33N 37°57' E 023°37'0 0.0
2015-Mar-30 11:30N 37°57' E 023°37'1 0.1
2015-Mar-29 22:33N 37°57' E 023°35'6 5.9
2015-Mar-29 21:33N 38°02' E 023°31'4 4.1
2015-Mar-29 20:33N 37°58' E 023°33'3 3.0
2015-Mar-29 19:33N 37°57' E 023°37'0 0.0
2015-Mar-29 18:33N 37°57' E 023°37'1 0.9
2015-Mar-29 17:28N 37°57' E 023°35'1 1.0
2015-Mar-29 16:29N 37°57' E 023°37'0 0.0
2015-Mar-29 15:32N 37°57' E 023°37'1 0.8
2015-Mar-29 14:33N 37°57' E 023°36'0 0.4
2015-Mar-29 13:33N 37°57' E 023°36'1 0.5
2015-Mar-29 12:28N 37°57' E 023°37'1 1.0
2015-Mar-29 11:32N 37°57' E 023°35'1 0.0
2015-Mar-28 12:33N 37°57' E 023°37'1 1.0
2015-Mar-28 11:34N 37°57' E 023°35'1 1.0
2015-Mar-28 10:32N 37°57' E 023°37'0 0.0
2015-Mar-28 09:30N 37°57' E 023°37'0 0.0
2015-Mar-28 08:33N 37°57' E 023°37'3 2.8
2015-Mar-28 07:22N 37°60' E 023°34'2 1.9
2015-Mar-28 06:31N 37°59' E 023°32'3 3.2
2015-Mar-28 05:31N 37°57' E 023°36'0 0.5
2015-Mar-28 04:31N 37°57' E 023°35'1 0.0
2015-Mar-27 11:33N 37°57' E 023°34'4 4.0
2015-Mar-27 10:28N 38°02' E 023°36'2 2.1
2015-Mar-27 09:33N 38°02' E 023°33'2 1.8
2015-Mar-27 08:33N 38°02' E 023°31'1 0.7
2015-Mar-27 07:33N 38°02' E 023°30'4 2.0
2015-Mar-27 05:25N 37°58' E 023°33'3 2.9
2015-Mar-27 04:22N 37°57' E 023°37'1 0.0
2015-Mar-26 14:33N 37°57' E 023°36'2 1.6
2015-Mar-26 13:18N 37°58' E 023°33'4 4.5
2015-Mar-26 12:27N 38°01' E 023°35'0 0.2
2015-Mar-26 11:31N 38°01' E 023°35'4 4.3
2015-Mar-26 10:33N 37°58' E 023°33'3 2.3
2015-Mar-26 09:23N 37°57' E 023°37'0 0.0
2015-Mar-26 07:32N 37°57' E 023°37'0 0.0
2015-Mar-26 05:22N 37°57' E 023°37'1 1.1
2015-Mar-26 04:25N 37°57' E 023°35'1 0.1
2015-Mar-25 07:33N 37°56' E 023°36'1 0.9
2015-Mar-25 06:27N 37°57' E 023°36'1 0.8
2015-Mar-25 05:32N 37°57' E 023°35'1 1.0
2015-Mar-25 04:32N 37°57' E 023°36'0 0.0
2015-Mar-24 11:28N 37°57' E 023°37'0 0.0
2015-Mar-24 09:10N 37°57' E 023°37'1 0.4
2015-Mar-24 05:20N 37°57' E 023°35'1 1.1
2015-Mar-24 04:03N 37°57' E 023°37'0 0.0
2015-Mar-23 19:07N 37°57' E 023°36'0 0.2
2015-Mar-23 18:18N 37°57' E 023°36'0 0.0
2015-Mar-23 17:28N 37°57' E 023°36'0 0.0
2015-Mar-23 16:22N 37°57' E 023°36'0 0.0
2015-Mar-23 15:18N 37°57' E 023°36'0 0.3
2015-Mar-23 14:28N 37°57' E 023°36'1 1.2
2015-Mar-23 13:33N 37°56' E 023°36'1 1.0
2015-Mar-23 12:31N 37°57' E 023°36'0 0.2
2015-Mar-23 11:08N 37°57' E 023°37'0 0.0
2015-Mar-23 10:21N 37°57' E 023°37'3 3.2
2015-Mar-23 09:33N 37°57' E 023°33'  

Dump ship's entire track history